Time;durP1;ratioP1;P1;durP2;ratioP2;P2;SDS_P1;SDS_P2;PMS_P1;PMS_P2;Temp;Humidity;BMP_temperature;BMP_pressure;BME280_temperature;BME280_humidity;BME280_pressure;Samples;Min_cycle;Max_cycle;Signal;HPM_P1;HPM_P2
2023/11/27 00:02:56;;;;;;;10.13;7.47;;;4.00;92.10;;;;;;6190723;28;20456;-75
2023/11/27 00:05:57;;;;;;;13.45;8.35;;;4.00;92.10;;;;;;6189095;28;20065;-76
2023/11/27 00:08:59;;;;;;;13.48;7.50;;;4.10;92.10;;;;;;6189113;28;20057;-76
2023/11/27 00:12:02;;;;;;;14.40;7.20;;;4.10;92.10;;;;;;6190939;28;20069;-76
2023/11/27 00:15:04;;;;;;;14.98;8.10;;;4.10;92.10;;;;;;6188395;28;20042;-76
2023/11/27 00:18:07;;;;;;;10.95;7.68;;;4.10;92.00;;;;;;6188626;28;20038;-77
2023/11/27 00:21:09;;;;;;;17.05;6.80;;;4.10;92.00;;;;;;6187894;28;20042;-77
2023/11/27 00:24:11;;;;;;;20.77;7.53;;;4.10;92.00;;;;;;6190122;28;20439;-76
2023/11/27 00:27:13;;;;;;;12.73;8.02;;;4.10;92.00;;;;;;6188335;28;20046;-77
2023/11/27 00:30:16;;;;;;;20.02;8.00;;;4.10;91.90;;;;;;6188955;28;20042;-76
2023/11/27 00:33:19;;;;;;;13.90;8.00;;;4.00;91.90;;;;;;6189413;28;20046;-76
2023/11/27 00:36:21;;;;;;;19.77;7.18;;;4.00;91.90;;;;;;6188907;28;20058;-76
2023/11/27 00:39:22;;;;;;;9.73;7.68;;;4.00;91.90;;;;;;6188761;28;20047;-77
2023/11/27 00:42:24;;;;;;;16.45;7.80;;;3.90;91.90;;;;;;6188876;28;20049;-77
2023/11/27 00:45:26;;;;;;;22.10;8.45;;;3.90;91.90;;;;;;6189889;28;20042;-76
2023/11/27 00:48:29;;;;;;;10.40;7.60;;;3.90;91.90;;;;;;6187836;28;20055;-76
2023/11/27 00:51:30;;;;;;;15.32;7.97;;;3.90;92.00;;;;;;6190894;28;20050;-77
2023/11/27 00:54:33;;;;;;;16.98;8.25;;;3.90;92.00;;;;;;6189696;28;20511;-77
2023/11/27 00:57:34;;;;;;;15.73;7.43;;;3.90;92.00;;;;;;6186727;28;20427;-76
2023/11/27 01:00:37;;;;;;;12.18;6.45;;;3.90;92.00;;;;;;6187342;28;20050;-76
2023/11/27 01:03:40;;;;;;;11.38;6.97;;;3.90;92.00;;;;;;6190068;28;20050;-76
2023/11/27 01:06:43;;;;;;;16.83;7.57;;;3.90;92.00;;;;;;6188077;28;20503;-76
2023/11/27 01:09:45;;;;;;;15.20;7.47;;;4.00;92.00;;;;;;6188377;28;20046;-76
2023/11/27 01:12:46;;;;;;;14.50;7.55;;;4.00;92.00;;;;;;6188316;28;20496;-76
2023/11/27 01:15:48;;;;;;;15.10;8.00;;;4.00;92.00;;;;;;6188653;28;20054;-76
2023/11/27 01:18:51;;;;;;;11.30;7.88;;;4.00;92.00;;;;;;6189584;28;20049;-77
2023/11/27 01:21:53;;;;;;;17.33;8.75;;;4.00;92.00;;;;;;6189639;28;20050;-76
2023/11/27 01:24:55;;;;;;;16.85;7.68;;;4.00;92.00;;;;;;6188465;28;20420;-75
2023/11/27 01:27:56;;;;;;;10.82;6.85;;;4.10;92.00;;;;;;6193392;28;20403;-76
2023/11/27 01:30:58;;;;;;;9.52;7.07;;;4.10;92.00;;;;;;6193216;28;20053;-76
2023/11/27 01:34:01;;;;;;;12.05;7.65;;;4.10;91.90;;;;;;6194672;28;20046;-74
2023/11/27 01:37:03;;;;;;;9.15;7.60;;;4.10;91.90;;;;;;6194221;28;20337;-76
2023/11/27 01:40:06;;;;;;;12.32;7.78;;;4.10;91.90;;;;;;6192647;28;20054;-76
2023/11/27 01:43:17;;;;;;;14.02;8.20;;;4.10;91.90;;;;;;6193997;28;20071;-76
2023/11/27 01:46:24;;;;;;;18.55;8.27;;;4.10;91.90;;;;;;6192596;28;20069;-76
2023/11/27 01:49:27;;;;;;;14.73;8.07;;;4.10;91.90;;;;;;6190415;28;21138;-76
2023/11/27 01:52:29;;;;;;;14.07;6.75;;;4.20;91.90;;;;;;6192496;28;20134;-76
2023/11/27 01:55:31;;;;;;;12.45;7.57;;;4.20;91.90;;;;;;6192395;28;20062;-76
2023/11/27 01:58:33;;;;;;;12.88;6.90;;;4.20;91.90;;;;;;6194377;28;20046;-75
2023/11/27 02:01:35;;;;;;;13.82;7.38;;;4.20;91.90;;;;;;6193031;28;20053;-76
2023/11/27 02:04:38;;;;;;;9.55;5.85;;;4.20;91.90;;;;;;6192427;28;20143;-76
2023/11/27 02:07:41;;;;;;;7.85;5.35;;;4.20;91.80;;;;;;6190886;28;20138;-76
2023/11/27 02:10:43;;;;;;;13.57;6.13;;;4.20;91.80;;;;;;6190059;28;20500;-76
2023/11/27 02:13:45;;;;;;;18.10;6.65;;;4.30;91.80;;;;;;6191723;28;20749;-76
2023/11/27 02:16:47;;;;;;;19.95;7.75;;;4.30;91.80;;;;;;6209739;22;20061;-82
2023/11/27 02:19:50;;;;;;;9.05;6.38;;;4.30;91.80;;;;;;6222448;28;20143;-82
2023/11/27 02:22:52;;;;;;;10.63;5.13;;;4.30;91.70;;;;;;6222119;28;20046;-82
2023/11/27 02:25:55;;;;;;;17.35;5.75;;;4.30;91.70;;;;;;6224769;28;20104;-83
2023/11/27 02:28:57;;;;;;;9.85;5.40;;;4.30;91.70;;;;;;6218947;28;20037;-82
2023/11/27 02:31:58;;;;;;;10.68;5.32;;;4.20;91.60;;;;;;6221313;28;20509;-83
2023/11/27 02:35:00;;;;;;;7.35;4.95;;;4.20;91.60;;;;;;6221500;28;20406;-83
2023/11/27 02:38:02;;;;;;;7.82;4.22;;;4.20;91.60;;;;;;6221825;28;20042;-83
2023/11/27 02:41:06;;;;;;;11.95;5.55;;;4.20;91.90;;;;;;6232283;28;20046;-83
2023/11/27 02:44:09;;;;;;;8.18;6.18;;;4.10;91.50;;;;;;6225153;28;20053;-83
2023/11/27 02:47:11;;;;;;;17.35;7.13;;;4.10;91.50;;;;;;6217488;28;20038;-83
2023/11/27 02:50:13;;;;;;;10.65;5.93;;;4.00;91.50;;;;;;6202259;28;20050;-83
2023/11/27 02:53:16;;;;;;;9.98;5.78;;;4.00;91.50;;;;;;6178258;28;20128;-83
2023/11/27 02:56:19;;;;;;;9.75;5.25;;;3.90;91.50;;;;;;6178401;28;20592;-83
2023/11/27 02:59:22;;;;;;;11.25;6.28;;;3.90;91.60;;;;;;6190488;28;20392;-82
2023/11/27 03:02:23;;;;;;;8.32;5.45;;;3.90;91.90;;;;;;6202343;28;20412;-82
2023/11/27 03:05:25;;;;;;;10.82;4.50;;;3.80;91.50;;;;;;6193453;28;20114;-82
2023/11/27 03:08:27;;;;;;;9.30;5.50;;;3.80;91.50;;;;;;6203569;28;20051;-82
2023/11/27 03:11:30;;;;;;;12.50;5.93;;;3.80;91.60;;;;;;6203077;28;20050;-83
2023/11/27 03:14:31;;;;;;;7.43;5.88;;;3.70;91.50;;;;;;6202390;28;20050;-83
2023/11/27 03:17:33;;;;;;;12.35;7.05;;;3.70;91.50;;;;;;6208840;28;20043;-82
2023/11/27 03:20:35;;;;;;;13.95;7.05;;;3.60;91.50;;;;;;6208331;28;20512;-82
2023/11/27 03:23:37;;;;;;;8.50;6.13;;;3.60;91.50;;;;;;6207425;28;20057;-82
2023/11/27 03:26:40;;;;;;;17.75;6.38;;;3.50;91.60;;;;;;6206458;28;20049;-83
2023/11/27 03:29:41;;;;;;;13.98;6.88;;;3.50;91.60;;;;;;6214023;28;20046;-82
2023/11/27 03:32:43;;;;;;;12.68;8.43;;;3.50;91.60;;;;;;6212865;28;20046;-83
2023/11/27 03:35:45;;;;;;;13.23;6.53;;;3.50;91.60;;;;;;6194649;28;20046;-83
2023/11/27 03:38:46;;;;;;;9.30;6.93;;;3.40;91.60;;;;;;6206852;28;20035;-83
2023/11/27 03:41:51;;;;;;;13.02;7.30;;;3.50;91.70;;;;;;6205780;28;20042;-83
2023/11/27 03:44:53;;;;;;;9.25;7.72;;;3.50;91.70;;;;;;6219899;28;20418;-83
2023/11/27 03:47:54;;;;;;;11.48;7.22;;;3.50;91.80;;;;;;6215438;28;20046;-83
2023/11/27 03:50:56;;;;;;;13.00;7.43;;;3.50;91.70;;;;;;6188349;28;20047;-83
2023/11/27 03:53:58;;;;;;;11.35;6.45;;;3.50;91.70;;;;;;6188080;28;20053;-83
2023/11/27 03:57:01;;;;;;;8.88;6.22;;;3.50;91.70;;;;;;6206624;28;20699;-83
2023/11/27 04:00:06;;;;;;;10.30;7.18;;;3.60;91.40;;;;;;6207358;28;20053;-83
2023/11/27 04:03:08;;;;;;;9.13;6.72;;;3.60;91.70;;;;;;6213479;28;20042;-83
2023/11/27 04:06:12;;;;;;;10.07;6.95;;;3.70;91.70;;;;;;6184483;28;20042;-83
2023/11/27 04:09:14;;;;;;;17.65;6.97;;;3.70;91.70;;;;;;6204970;28;20053;-83
2023/11/27 04:12:17;;;;;;;11.52;6.82;;;3.70;91.70;;;;;;6206418;28;20043;-83
2023/11/27 04:15:18;;;;;;;10.77;7.57;;;3.70;91.70;;;;;;6226367;28;20111;-83
2023/11/27 04:18:20;;;;;;;11.07;7.50;;;3.80;91.60;;;;;;6224479;28;20048;-84
2023/11/27 04:21:22;;;;;;;13.35;7.45;;;3.80;91.60;;;;;;6229147;28;20053;-83
2023/11/27 04:24:23;;;;;;;11.82;7.00;;;3.80;91.60;;;;;;6239314;28;20048;-83
2023/11/27 04:27:26;;;;;;;16.17;7.68;;;3.80;91.60;;;;;;6229681;28;20419;-83
2023/11/27 04:30:28;;;;;;;12.85;6.60;;;3.80;91.60;;;;;;6222684;28;20046;-83
2023/11/27 04:33:30;;;;;;;10.15;6.32;;;3.80;91.60;;;;;;6219567;28;20053;-83
2023/11/27 04:36:32;;;;;;;13.10;6.22;;;3.80;91.60;;;;;;6237653;28;20058;-83
2023/11/27 04:39:33;;;;;;;11.85;7.78;;;3.70;91.50;;;;;;6238985;28;20046;-83
2023/11/27 04:42:38;;;;;;;8.55;6.45;;;3.70;91.50;;;;;;6219695;28;20518;-83
2023/11/27 04:45:39;;;;;;;7.82;5.80;;;3.70;91.40;;;;;;6230523;28;20134;-83
2023/11/27 04:48:41;;;;;;;11.32;7.05;;;3.70;91.40;;;;;;6216271;28;20042;-83
2023/11/27 04:51:43;;;;;;;12.90;5.95;;;3.70;91.40;;;;;;6225911;28;20506;-83
2023/11/27 04:54:44;;;;;;;10.52;6.43;;;3.70;91.40;;;;;;6212226;28;20410;-83
2023/11/27 04:57:47;;;;;;;14.45;7.32;;;3.70;91.40;;;;;;6227547;28;20052;-83
2023/11/27 05:00:49;;;;;;;14.50;6.43;;;3.70;91.40;;;;;;6229170;28;20053;-83
2023/11/27 05:03:51;;;;;;;7.78;5.88;;;3.70;91.40;;;;;;6229474;28;20056;-83
2023/11/27 05:06:53;;;;;;;13.77;6.03;;;3.70;91.40;;;;;;6209985;28;20422;-81
2023/11/27 05:09:54;;;;;;;8.32;6.00;;;3.70;91.40;;;;;;6219979;28;20503;-81
2023/11/27 05:12:57;;;;;;;14.18;6.95;;;3.70;91.40;;;;;;6238497;28;20392;-82
2023/11/27 05:15:59;;;;;;;13.57;5.97;;;3.70;91.40;;;;;;6226638;28;20507;-81
2023/11/27 05:19:01;;;;;;;10.30;7.13;;;3.70;91.40;;;;;;6232895;28;20038;-81
2023/11/27 05:22:02;;;;;;;11.93;7.68;;;3.70;91.40;;;;;;6210133;28;20038;-83
2023/11/27 05:25:05;;;;;;;9.48;5.47;;;3.70;91.40;;;;;;6218857;28;20077;-83
2023/11/27 05:28:09;;;;;;;10.05;6.32;;;3.70;91.40;;;;;;6226799;28;20045;-84
2023/11/27 05:31:10;;;;;;;16.95;7.82;;;3.70;91.40;;;;;;6227297;28;20046;-83
2023/11/27 05:34:12;;;;;;;12.15;7.47;;;3.70;91.40;;;;;;6228346;28;20042;-83
2023/11/27 05:37:14;;;;;;;14.18;6.00;;;3.70;91.40;;;;;;6230886;28;20523;-83
2023/11/27 05:40:16;;;;;;;14.25;5.60;;;3.80;91.40;;;;;;6232589;28;20042;-83
2023/11/27 05:43:19;;;;;;;10.55;6.45;;;3.80;91.40;;;;;;6231911;28;20049;-83
2023/11/27 05:46:21;;;;;;;10.07;6.35;;;3.80;91.40;;;;;;6230206;28;20046;-83
2023/11/27 05:49:23;;;;;;;8.95;7.18;;;3.80;91.40;;;;;;6231078;28;20041;-83
2023/11/27 05:52:25;;;;;;;14.32;6.50;;;3.80;91.40;;;;;;6232816;28;20145;-83
2023/11/27 05:55:27;;;;;;;8.27;5.90;;;3.80;91.40;;;;;;6207823;28;20472;-83
2023/11/27 05:58:30;;;;;;;10.18;6.30;;;3.80;91.40;;;;;;6230470;28;20041;-83
2023/11/27 06:01:32;;;;;;;9.48;5.43;;;3.80;91.40;;;;;;6230680;28;20057;-83
2023/11/27 06:04:33;;;;;;;7.75;6.18;;;3.80;91.30;;;;;;6235162;28;20053;-83
2023/11/27 06:07:35;;;;;;;11.30;5.78;;;3.80;91.30;;;;;;6213977;28;20060;-85
2023/11/27 06:10:37;;;;;;;10.05;6.40;;;3.80;91.30;;;;;;6226804;28;20526;-83
2023/11/27 06:13:41;;;;;;;11.48;8.25;;;3.80;91.20;;;;;;6212575;28;20575;-83
2023/11/27 06:16:42;;;;;;;13.82;6.55;;;3.80;91.20;;;;;;6229023;28;20054;-83
2023/11/27 06:19:44;;;;;;;10.85;6.85;;;3.80;91.20;;;;;;6222476;28;20046;-82
2023/11/27 06:22:46;;;;;;;7.10;5.55;;;3.80;91.20;;;;;;6224654;28;20065;-82
2023/11/27 06:25:48;;;;;;;10.43;7.53;;;3.90;91.30;;;;;;6226868;28;20038;-82
2023/11/27 06:28:51;;;;;;;10.70;7.70;;;3.90;91.20;;;;;;6230437;28;20191;-82
2023/11/27 06:31:52;;;;;;;15.73;8.98;;;3.90;91.20;;;;;;6220989;28;20117;-82
2023/11/27 06:34:54;;;;;;;14.48;9.20;;;3.90;91.20;;;;;;6223494;28;20049;-79
2023/11/27 06:37:56;;;;;;;11.75;6.45;;;3.90;91.20;;;;;;6226865;28;20045;-80
2023/11/27 06:40:58;;;;;;;8.85;5.53;;;3.90;91.20;;;;;;6218601;28;20042;-79
2023/11/27 06:44:01;;;;;;;16.83;6.88;;;3.90;91.20;;;;;;6224836;28;20050;-80
2023/11/27 06:47:02;;;;;;;11.05;6.20;;;3.90;91.20;;;;;;6230690;28;20506;-79
2023/11/27 06:50:05;;;;;;;13.95;6.50;;;3.90;91.20;;;;;;6217182;28;20049;-78
2023/11/27 06:53:07;;;;;;;10.95;6.65;;;3.90;91.20;;;;;;6225259;28;20048;-79
2023/11/27 06:56:10;;;;;;;14.35;6.80;;;3.90;91.20;;;;;;6217272;28;20049;-79
2023/11/27 06:59:13;;;;;;;7.90;6.00;;;3.90;91.10;;;;;;6236526;28;20037;-79
2023/11/27 07:02:15;;;;;;;10.70;7.85;;;3.90;91.10;;;;;;6225747;28;20043;-79
2023/11/27 07:05:16;;;;;;;8.77;6.13;;;3.80;91.00;;;;;;6227306;28;20510;-81
2023/11/27 07:08:18;;;;;;;13.48;7.15;;;3.80;91.00;;;;;;6224909;28;20041;-80
2023/11/27 07:11:22;;;;;;;12.25;6.75;;;3.80;91.10;;;;;;6216714;28;20042;-79
2023/11/27 07:14:26;;;;;;;9.10;7.22;;;3.80;91.10;;;;;;6222093;28;20038;-79
2023/11/27 07:17:27;;;;;;;10.52;6.75;;;3.80;91.10;;;;;;6206524;28;20542;-79
2023/11/27 07:20:29;;;;;;;15.15;7.63;;;3.90;91.10;;;;;;6223258;28;20490;-80
2023/11/27 07:23:32;;;;;;;9.30;6.53;;;3.90;91.10;;;;;;6227076;28;20061;-79
2023/11/27 07:26:33;;;;;;;14.27;7.28;;;3.90;91.10;;;;;;6222326;28;20060;-79
2023/11/27 07:29:38;;;;;;;12.52;6.97;;;3.90;91.10;;;;;;6229121;28;20037;-79
2023/11/27 07:32:39;;;;;;;10.10;7.50;;;3.90;91.10;;;;;;6207088;28;20050;-79
2023/11/27 07:35:42;;;;;;;16.17;6.53;;;4.00;91.10;;;;;;6222797;28;20050;-80
2023/11/27 07:38:48;;;;;;;21.88;9.25;;;4.00;91.00;;;;;;6228041;28;20049;-79
2023/11/27 07:41:49;;;;;;;12.23;7.65;;;4.00;91.00;;;;;;6221867;28;20054;-81
2023/11/27 07:44:53;;;;;;;8.90;7.25;;;4.10;91.00;;;;;;6228802;28;20046;-82
2023/11/27 07:47:55;;;;;;;10.43;7.25;;;4.10;91.00;;;;;;6201990;28;20056;-82
2023/11/27 07:50:57;;;;;;;14.40;6.35;;;4.10;91.00;;;;;;6230772;28;20044;-82
2023/11/27 07:53:59;;;;;;;8.80;6.65;;;4.20;91.00;;;;;;6227177;28;20049;-81
2023/11/27 07:57:00;;;;;;;11.43;6.60;;;4.20;91.00;;;;;;6222787;28;20041;-82
2023/11/27 08:00:11;;;;;;;17.52;6.70;;;4.20;90.90;;;;;;6219052;28;20042;-82
2023/11/27 08:03:13;;;;;;;13.25;5.90;;;4.20;90.90;;;;;;6222024;28;20168;-79
2023/11/27 08:06:15;;;;;;;12.07;6.60;;;4.30;90.90;;;;;;6221119;28;20038;-79
2023/11/27 08:09:17;;;;;;;13.07;6.50;;;4.30;90.90;;;;;;6223404;28;20088;-79
2023/11/27 08:12:19;;;;;;;12.30;5.78;;;4.40;90.90;;;;;;6227880;28;20049;-82
2023/11/27 08:15:22;;;;;;;8.32;5.43;;;4.40;90.80;;;;;;6227321;28;20185;-82
2023/11/27 08:18:25;;;;;;;8.45;4.82;;;4.50;90.80;;;;;;6236205;23;20156;-77
2023/11/27 08:21:26;;;;;;;8.32;6.53;;;4.60;90.70;;;;;;6220720;28;20045;-77
2023/11/27 08:24:28;;;;;;;8.98;5.90;;;4.60;90.60;;;;;;6234517;28;20104;-75
2023/11/27 08:27:30;;;;;;;8.10;5.43;;;4.70;90.60;;;;;;6237623;28;20060;-76
2023/11/27 08:30:33;;;;;;;6.28;4.97;;;4.70;90.50;;;;;;6203541;28;20049;-76
2023/11/27 08:33:34;;;;;;;5.72;4.63;;;4.80;90.50;;;;;;6188794;28;20530;-78
2023/11/27 08:36:36;;;;;;;5.72;4.97;;;4.80;90.40;;;;;;6200565;28;20054;-77
2023/11/27 08:39:39;;;;;;;11.23;5.38;;;4.90;90.40;;;;;;6203198;28;20050;-77
2023/11/27 08:42:42;;;;;;;7.47;5.72;;;5.00;90.30;;;;;;6195253;28;20043;-78
2023/11/27 08:45:45;;;;;;;6.07;4.82;;;5.00;90.10;;;;;;6192061;28;20046;-78
2023/11/27 08:48:47;;;;;;;12.00;6.90;;;5.10;90.10;;;;;;6196329;28;20146;-77
2023/11/27 08:51:49;;;;;;;7.25;4.45;;;5.20;90.10;;;;;;6192239;28;20075;-78
2023/11/27 08:54:51;;;;;;;4.43;4.03;;;5.30;90.10;;;;;;6196703;28;20411;-76
2023/11/27 08:57:53;;;;;;;8.23;4.28;;;5.40;89.60;;;;;;6195550;28;20045;-76
2023/11/27 09:00:56;;;;;;;5.28;3.70;;;5.50;89.40;;;;;;6199499;28;20064;-77
2023/11/27 09:03:58;;;;;;;5.65;3.88;;;5.50;88.90;;;;;;6204036;28;20140;-79
2023/11/27 09:07:00;;;;;;;10.02;4.05;;;5.60;88.40;;;;;;6201901;28;20134;-78
2023/11/27 09:10:02;;;;;;;6.22;3.83;;;5.70;88.40;;;;;;6204886;28;20045;-78
2023/11/27 09:13:05;;;;;;;3.65;2.83;;;5.70;88.00;;;;;;6212393;28;20038;-78
2023/11/27 09:16:10;;;;;;;11.45;7.22;;;5.70;87.70;;;;;;6205772;28;20050;-79
2023/11/27 09:19:12;;;;;;;5.53;3.42;;;5.80;87.20;;;;;;6227752;28;20045;-79
2023/11/27 09:22:14;;;;;;;5.80;3.60;;;5.80;86.90;;;;;;6231746;28;20499;-78
2023/11/27 09:25:16;;;;;;;8.80;4.15;;;5.90;87.00;;;;;;6225663;28;20078;-78
2023/11/27 09:28:18;;;;;;;4.93;2.83;;;5.90;86.70;;;;;;6207420;28;20053;-77
2023/11/27 09:31:22;;;;;;;6.03;2.80;;;6.00;86.70;;;;;;6215471;28;20050;-77
2023/11/27 09:34:23;;;;;;;3.45;3.15;;;6.10;86.70;;;;;;6207075;28;20039;-79
2023/11/27 09:37:26;;;;;;;3.28;2.55;;;6.30;86.30;;;;;;6213877;28;20038;-79
2023/11/27 09:40:38;;;;;;;6.00;3.75;;;6.40;86.20;;;;;;6230162;28;20056;-79
2023/11/27 09:43:40;;;;;;;4.65;2.47;;;6.40;85.20;;;;;;6217694;28;20072;-78
2023/11/27 09:46:46;;;;;;;4.75;2.40;;;6.50;84.70;;;;;;6198213;28;20061;-79
2023/11/27 09:49:50;;;;;;;3.67;2.22;;;6.60;84.70;;;;;;6202386;28;20046;-79
2023/11/27 09:52:59;;;;;;;5.32;2.45;;;6.60;83.40;;;;;;6206178;28;20134;-79
2023/11/27 09:56:02;;;;;;;4.40;2.40;;;6.60;83.50;;;;;;6207420;28;20195;-80
2023/11/27 09:59:04;;;;;;;7.90;2.85;;;6.60;82.90;;;;;;6198234;28;20519;-77
2023/11/27 10:02:10;;;;;;;4.00;2.88;;;6.60;82.70;;;;;;6195991;28;20042;-76
2023/11/27 10:05:12;;;;;;;2.78;2.47;;;6.70;82.90;;;;;;6202028;28;20057;-77
2023/11/27 10:08:13;;;;;;;4.43;3.05;;;6.70;82.50;;;;;;6198628;28;20563;-79
2023/11/27 10:11:16;;;;;;;4.15;2.17;;;6.80;82.40;;;;;;6198666;28;20042;-78
2023/11/27 10:14:19;;;;;;;3.38;2.33;;;6.80;81.70;;;;;;6196750;28;20050;-77
2023/11/27 10:17:22;;;;;;;3.88;2.08;;;6.90;81.90;;;;;;6194193;28;20068;-78
2023/11/27 10:20:25;;;;;;;3.58;2.88;;;6.90;80.60;;;;;;6198448;28;20049;-78
2023/11/27 10:23:28;;;;;;;8.98;3.10;;;6.90;78.50;;;;;;6206376;28;20042;-79
2023/11/27 10:26:31;;;;;;;4.85;2.70;;;6.90;78.30;;;;;;6216460;28;20515;-78
2023/11/27 10:29:33;;;;;;;7.13;2.85;;;6.90;78.80;;;;;;6201795;28;20507;-79
2023/11/27 10:32:36;;;;;;;3.92;2.53;;;7.00;78.20;;;;;;6208500;28;20046;-78
2023/11/27 10:35:38;;;;;;;3.22;1.70;;;7.10;77.60;;;;;;6202749;28;20054;-79
2023/11/27 10:38:43;;;;;;;6.03;3.00;;;7.10;77.50;;;;;;6202652;28;20188;-79
2023/11/27 10:41:47;;;;;;;3.67;2.22;;;7.10;76.40;;;;;;6218741;28;20124;-78
2023/11/27 10:44:50;;;;;;;6.35;4.20;;;7.10;76.90;;;;;;6211186;28;20045;-79
2023/11/27 10:47:53;;;;;;;4.35;2.22;;;7.10;77.10;;;;;;6210674;28;20085;-77
2023/11/27 10:50:58;;;;;;;3.00;1.40;;;7.10;77.00;;;;;;6217379;28;20034;-79
2023/11/27 10:54:00;;;;;;;3.17;2.17;;;7.10;76.40;;;;;;6209973;28;20050;-79
2023/11/27 10:57:03;;;;;;;2.80;2.08;;;7.20;76.80;;;;;;6209714;28;20042;-79
2023/11/27 11:00:07;;;;;;;4.82;1.70;;;7.20;75.70;;;;;;6205205;28;20557;-78
2023/11/27 11:03:15;;;;;;;7.05;2.20;;;7.20;73.60;;;;;;6208275;28;20125;-79
2023/11/27 11:06:19;;;;;;;;;;;7.20;73.70;;;;;;6200630;28;20420;-79
2023/11/27 11:09:24;;;;;;;9.30;4.57;;;7.20;73.90;;;;;;6214059;28;19926;-78
2023/11/27 11:12:28;;;;;;;2.95;1.92;;;7.20;73.90;;;;;;6203144;28;20050;-78
2023/11/27 11:15:39;;;;;;;2.28;1.98;;;7.20;73.80;;;;;;6216364;28;20574;-79
2023/11/27 11:18:51;;;;;;;1.90;1.67;;;7.20;72.60;;;;;;6192970;28;20051;-79
2023/11/27 11:22:01;;;;;;;5.68;1.90;;;7.20;72.30;;;;;;6200870;28;20050;-78
2023/11/27 11:25:13;;;;;;;3.22;1.50;;;7.20;70.40;;;;;;6197824;28;20054;-77
2023/11/27 11:28:25;;;;;;;1.63;1.27;;;7.20;69.80;;;;;;6209196;28;20045;-78
2023/11/27 11:31:35;;;;;;;1.83;1.15;;;7.20;68.90;;;;;;6216130;28;20055;-79
2023/11/27 11:34:42;;;;;;;1.30;1.13;;;7.30;66.30;;;;;;6201282;28;20480;-78
2023/11/27 11:37:49;;;;;;;2.08;0.93;;;7.30;62.00;;;;;;6200834;28;20049;-78
2023/11/27 11:40:51;;;;;;;11.05;2.38;;;7.20;63.30;;;;;;6180075;28;20058;-79
2023/11/27 11:43:56;;;;;;;2.47;1.20;;;7.20;59.70;;;;;;6225550;28;20054;-78
2023/11/27 11:46:58;;;;;;;2.10;0.90;;;7.10;60.40;;;;;;6226223;28;20056;-79
2023/11/27 11:50:28;;;;;;;1.10;1.00;;;7.10;61.20;;;;;;6211783;28;20130;-79
2023/11/27 11:53:39;;;;;;;2.88;1.70;;;7.00;62.60;;;;;;6200605;28;20046;-78
2023/11/27 11:56:41;;;;;;;2.38;1.73;;;7.00;63.60;;;;;;6201554;28;20050;-76
2023/11/27 11:59:46;;;;;;;4.82;1.58;;;6.90;64.70;;;;;;6202147;28;20057;-77
2023/11/27 12:02:49;;;;;;;2.83;1.30;;;6.80;66.20;;;;;;6220071;28;20050;-78
2023/11/27 12:05:54;;;;;;;4.70;1.83;;;6.70;67.30;;;;;;6216405;28;20052;-79
2023/11/27 12:08:58;;;;;;;2.03;1.20;;;6.60;68.10;;;;;;6200521;28;20538;-79
2023/11/27 12:12:00;;;;;;;4.43;1.75;;;6.50;68.10;;;;;;6200958;28;20046;-78
2023/11/27 12:15:06;;;;;;;3.67;1.50;;;6.50;68.90;;;;;;6201144;28;20054;-78
2023/11/27 12:18:09;;;;;;;6.18;1.77;;;6.40;69.40;;;;;;6200357;28;20046;-79
2023/11/27 12:21:15;;;;;;;6.35;1.63;;;6.30;70.50;;;;;;6193712;28;20053;-78
2023/11/27 12:24:19;;;;;;;2.63;1.52;;;6.20;71.30;;;;;;6193859;28;20129;-78
2023/11/27 12:27:22;;;;;;;2.70;2.03;;;6.10;72.40;;;;;;6210249;28;20042;-79
2023/11/27 12:30:24;;;;;;;4.95;2.88;;;6.00;73.20;;;;;;6209169;28;20052;-77
2023/11/27 12:33:27;;;;;;;6.53;4.00;;;6.00;73.80;;;;;;6209462;28;20053;-76
2023/11/27 12:36:31;;;;;;;2.08;1.63;;;6.00;74.10;;;;;;6212025;28;20058;-79
2023/11/27 12:39:37;;;;;;;2.38;1.90;;;5.90;74.90;;;;;;6211032;28;20058;-77
2023/11/27 12:42:40;;;;;;;3.70;2.72;;;5.80;75.30;;;;;;6209369;28;20523;-78
2023/11/27 12:45:42;;;;;;;4.57;2.25;;;5.80;75.80;;;;;;6210398;28;20050;-79
2023/11/27 12:48:45;;;;;;;7.15;4.43;;;5.70;76.20;;;;;;6207571;28;20065;-78
2023/11/27 12:51:51;;;;;;;5.63;3.38;;;5.60;77.00;;;;;;6194004;28;20047;-78
2023/11/27 12:54:55;;;;;;;5.07;1.80;;;5.50;77.60;;;;;;6190671;28;20042;-78
2023/11/27 12:57:56;;;;;;;1.95;1.70;;;5.40;78.10;;;;;;6201049;28;20050;-80
2023/11/27 13:01:00;;;;;;;3.58;1.60;;;5.40;79.00;;;;;;6208444;28;20048;-80
2023/11/27 13:04:01;;;;;;;5.20;3.45;;;5.30;79.60;;;;;;6217964;28;20054;-80
2023/11/27 13:07:09;;;;;;;2.20;1.85;;;5.20;80.00;;;;;;6224837;28;20115;-76
2023/11/27 13:10:11;;;;;;;4.07;2.33;;;5.10;80.60;;;;;;6215646;28;20115;-77
2023/11/27 13:13:20;;;;;;;2.80;1.80;;;5.00;81.20;;;;;;6194078;28;20058;-76
2023/11/27 13:16:21;;;;;;;6.03;3.88;;;5.00;82.10;;;;;;6190815;28;20483;-75
2023/11/27 13:19:24;;;;;;;3.42;2.70;;;4.80;82.30;;;;;;6226738;28;20204;-78
2023/11/27 13:22:31;;;;;;;17.95;14.70;;;4.70;83.00;;;;;;6227220;28;20046;-78
2023/11/27 13:25:36;;;;;;;5.70;3.07;;;4.70;83.50;;;;;;6220966;28;20045;-79
2023/11/27 13:28:42;;;;;;;3.58;2.20;;;4.60;84.00;;;;;;6203741;28;20057;-80
2023/11/27 13:31:44;;;;;;;3.97;2.45;;;4.50;84.50;;;;;;6217815;28;20523;-77
2023/11/27 13:34:55;;;;;;;2.45;1.98;;;4.50;84.80;;;;;;6205823;28;20426;-80
2023/11/27 13:38:00;;;;;;;4.28;3.13;;;4.50;85.20;;;;;;6200546;28;20076;-77
2023/11/27 13:41:02;;;;;;;2.67;2.35;;;4.40;85.50;;;;;;6196778;28;20047;-77
2023/11/27 13:44:07;;;;;;;5.13;4.35;;;4.30;85.80;;;;;;6190475;28;20061;-77
2023/11/27 13:47:16;;;;;;;7.15;4.03;;;4.30;86.20;;;;;;6182488;28;20054;-75
2023/11/27 13:50:18;;;;;;;6.65;4.57;;;4.30;86.70;;;;;;6183889;28;20058;-77
2023/11/27 13:53:24;;;;;;;3.60;2.42;;;4.30;87.00;;;;;;6185367;28;20045;-77
2023/11/27 13:56:30;;;;;;;5.65;2.63;;;4.30;87.20;;;;;;6185551;28;20049;-77
2023/11/27 13:59:35;;;;;;;4.25;2.30;;;4.30;87.40;;;;;;6188681;28;20086;-77
2023/11/27 14:02:37;;;;;;;3.55;1.98;;;4.20;87.60;;;;;;6185099;28;20054;-77
2023/11/27 14:05:39;;;;;;;3.47;2.78;;;4.20;87.70;;;;;;6185333;28;20527;-76
2023/11/27 14:08:51;;;;;;;6.40;2.47;;;4.20;88.00;;;;;;6186752;28;20054;-76
2023/11/27 14:11:56;;;;;;;5.68;3.45;;;4.20;88.20;;;;;;6190372;28;20046;-77
2023/11/27 14:15:08;;;;;;;6.65;2.72;;;4.20;88.30;;;;;;6186453;28;20191;-77
2023/11/27 14:18:45;;;;;;;9.82;3.08;;;4.20;88.60;;;;;;6187112;28;20038;-77
2023/11/27 14:25:30;;;;;;;3.40;2.08;;;4.20;88.70;;;;;;6082851;29;20044;-77
2023/11/27 14:28:54;;;;;;;3.97;1.70;;;4.20;88.90;;;;;;6185491;28;20117;-77
2023/11/27 14:31:55;;;;;;;7.55;3.15;;;4.20;89.10;;;;;;6187157;28;20113;-77
2023/11/27 14:37:51;;;;;;;3.80;2.40;;;4.20;89.00;;;;;;6281558;27;20373;-77
2023/11/27 14:40:56;;;;;;;4.97;3.40;;;4.20;89.50;;;;;;6239528;28;20046;-78
2023/11/27 14:43:59;;;;;;;3.50;2.45;;;4.20;89.60;;;;;;6236523;28;20065;-77
2023/11/27 14:47:00;;;;;;;6.20;2.47;;;4.20;89.90;;;;;;6242477;28;20507;-79
2023/11/27 14:50:03;;;;;;;6.50;2.78;;;4.20;90.10;;;;;;6245627;28;20041;-76
2023/11/27 14:53:07;;;;;;;5.22;3.25;;;4.20;90.20;;;;;;6242213;28;20046;-76
2023/11/27 14:56:10;;;;;;;3.03;2.28;;;4.30;90.20;;;;;;6243397;28;20045;-75
2023/11/27 14:59:13;;;;;;;5.03;2.58;;;4.30;90.30;;;;;;6241526;28;20139;-76
2023/11/27 15:02:20;;;;;;;6.75;3.50;;;4.30;90.40;;;;;;6256800;28;20056;-77
2023/11/27 15:05:22;;;;;;;10.03;6.53;;;4.30;90.40;;;;;;6257619;28;20038;-77
2023/11/27 15:08:25;;;;;;;6.43;3.90;;;4.30;90.40;;;;;;6217810;28;20126;-75
2023/11/27 15:11:27;;;;;;;6.45;3.60;;;4.30;90.80;;;;;;6217235;28;20050;-74
2023/11/27 15:14:29;;;;;;;6.10;2.85;;;4.40;90.50;;;;;;6217749;28;20097;-77
2023/11/27 15:17:32;;;;;;;10.00;7.25;;;4.30;90.40;;;;;;6216893;28;20042;-75
2023/11/27 15:20:36;;;;;;;5.43;2.58;;;4.40;90.50;;;;;;6218977;28;20438;-76
2023/11/27 15:23:40;;;;;;;3.00;2.28;;;4.40;90.50;;;;;;6258793;28;20454;-76
2023/11/27 15:26:42;;;;;;;4.55;2.90;;;4.40;90.60;;;;;;6243588;28;20049;-76
2023/11/27 15:29:44;;;;;;;4.22;2.83;;;4.40;90.60;;;;;;6242408;28;20041;-76
2023/11/27 15:32:46;;;;;;;9.43;7.97;;;4.30;90.60;;;;;;6254068;28;20052;-76
2023/11/27 15:35:47;;;;;;;4.97;2.78;;;4.30;90.60;;;;;;6227992;28;20144;-75
2023/11/27 15:38:52;;;;;;;2.15;1.95;;;4.30;90.60;;;;;;6244515;28;20049;-76
2023/11/27 15:41:54;;;;;;;7.45;2.80;;;4.30;90.70;;;;;;6241392;28;20041;-76
2023/11/27 15:44:56;;;;;;;3.47;2.25;;;4.40;90.70;;;;;;6237025;28;20053;-76
2023/11/27 15:47:59;;;;;;;4.32;2.00;;;4.30;90.80;;;;;;6206865;28;20047;-76
2023/11/27 15:51:00;;;;;;;5.25;2.35;;;4.30;90.80;;;;;;6211020;28;20145;-74
2023/11/27 15:54:07;;;;;;;3.05;1.95;;;4.30;90.70;;;;;;6199866;28;20061;-76
2023/11/27 15:57:08;;;;;;;2.80;1.80;;;4.30;90.70;;;;;;6203399;28;20054;-76
2023/11/27 16:00:14;;;;;;;7.40;2.72;;;4.30;90.70;;;;;;6202900;28;20046;-76
2023/11/27 16:03:15;;;;;;;5.68;2.40;;;4.30;90.70;;;;;;6199413;28;20524;-77
2023/11/27 16:06:17;;;;;;;2.20;1.85;;;4.30;90.70;;;;;;6201038;28;20503;-76
2023/11/27 16:09:20;;;;;;;3.10;1.70;;;4.30;90.70;;;;;;6198392;28;20364;-76